Аэропорт: Кадала. Чита

ICAO: UIAA

METAR:
2018/09/23 11:00
UIAA 231100Z 25001MPS 9999 NSC 08/03 Q1021 R29/CLRD70 NOSIG RMK QFE707/0942
METAR:
2018/09/23 09:25
TAF UIAA 230800Z 2309/2409 18003G08MPS 9999 SCT040CB